Time;durP1;ratioP1;P1;durP2;ratioP2;P2;SDS_P1;SDS_P2;PMS_P1;PMS_P2;Temp;Humidity;BMP_temperature;BMP_pressure;BME280_temperature;BME280_humidity;BME280_pressure;Samples;Min_cycle;Max_cycle;Signal;HPM_P1;HPM_P2
2021/06/03 00:00:04;;;;;;;8.70;1.73;;;;;;;;;;4954745;29;20140;-53
2021/06/03 00:02:31;;;;;;;6.28;1.55;;;;;;;;;;4952412;28;20066;-48
2021/06/03 00:04:58;;;;;;;11.98;2.15;;;;;;;;;;4955040;28;20445;-48
2021/06/03 00:07:25;;;;;;;10.85;1.40;;;;;;;;;;4955425;28;20098;-44
2021/06/03 00:09:52;;;;;;;8.18;2.33;;;;;;;;;;4955426;28;20035;-47
2021/06/03 00:12:19;;;;;;;12.05;1.65;;;;;;;;;;4954734;28;20086;-46
2021/06/03 00:14:47;;;;;;;9.60;2.05;;;;;;;;;;4955208;29;20084;-46
2021/06/03 00:17:14;;;;;;;10.57;2.00;;;;;;;;;;4954960;29;20020;-47
2021/06/03 00:19:41;;;;;;;11.85;2.03;;;;;;;;;;4937999;29;20027;-47
2021/06/03 00:22:08;;;;;;;12.32;2.30;;;;;;;;;;4954905;29;20463;-47
2021/06/03 00:24:35;;;;;;;9.85;2.20;;;;;;;;;;4955055;29;20030;-45
2021/06/03 00:27:02;;;;;;;8.73;3.03;;;;;;;;;;4954952;28;20038;-46
2021/06/03 00:29:29;;;;;;;14.13;2.92;;;;;;;;;;4955527;28;20499;-44
2021/06/03 00:31:56;;;;;;;17.40;3.42;;;;;;;;;;4954057;29;20027;-44
2021/06/03 00:34:23;;;;;;;12.40;3.92;;;;;;;;;;4954553;29;20027;-45
2021/06/03 00:36:50;;;;;;;17.70;4.47;;;;;;;;;;4955068;29;20050;-44
2021/06/03 00:39:17;;;;;;;21.55;4.97;;;;;;;;;;4954767;28;20483;-45
2021/06/03 00:41:45;;;;;;;19.38;4.55;;;;;;;;;;4954924;28;20030;-46
2021/06/03 00:44:12;;;;;;;20.02;5.10;;;;;;;;;;4955187;28;20045;-46
2021/06/03 00:46:39;;;;;;;22.90;5.28;;;;;;;;;;4954764;28;20554;-47
2021/06/03 00:49:06;;;;;;;24.27;5.35;;;;;;;;;;4960840;28;20046;-44
2021/06/03 00:51:34;;;;;;;18.05;4.45;;;;;;;;;;4958411;28;20027;-45
2021/06/03 00:54:01;;;;;;;22.75;5.10;;;;;;;;;;4954392;28;20366;-46
2021/06/03 00:56:28;;;;;;;19.23;4.55;;;;;;;;;;4955076;28;20484;-47
2021/06/03 00:58:55;;;;;;;16.60;4.18;;;;;;;;;;4954525;28;20035;-45
2021/06/03 01:01:23;;;;;;;14.43;4.38;;;;;;;;;;4952841;29;20024;-47
2021/06/03 01:03:50;;;;;;;19.27;4.07;;;;;;;;;;4953841;29;20031;-47
2021/06/03 01:06:18;;;;;;;15.10;4.20;;;;;;;;;;4937890;29;20059;-47
2021/06/03 01:08:55;;;;;;;17.80;4.15;;;;;;;;;;4954208;28;20102;-47
2021/06/03 01:11:28;;;;;;;14.18;3.65;;;;;;;;;;4954420;28;20027;-47
2021/06/03 01:14:02;;;;;;;17.25;4.05;;;;;;;;;;4954620;28;20034;-47
2021/06/03 01:16:30;;;;;;;15.85;3.83;;;;;;;;;;4954235;28;20027;-45
2021/06/03 01:18:58;;;;;;;11.55;3.17;;;;;;;;;;4953948;29;20058;-45
2021/06/03 01:21:38;;;;;;;12.73;3.53;;;;;;;;;;4952960;29;20094;-45
2021/06/03 01:24:22;;;;;;;18.13;3.70;;;;;;;;;;4954673;28;20011;-46
2021/06/03 01:26:50;;;;;;;9.48;3.17;;;;;;;;;;4954073;28;20042;-44
2021/06/03 01:29:18;;;;;;;12.95;3.67;;;;;;;;;;4954012;28;20090;-45
2021/06/03 01:31:49;;;;;;;15.80;3.95;;;;;;;;;;4953011;29;20027;-45
2021/06/03 01:34:17;;;;;;;16.58;3.40;;;;;;;;;;4954189;28;20035;-45
2021/06/03 01:36:44;;;;;;;12.77;3.03;;;;;;;;;;4953858;28;20019;-47
2021/06/03 01:39:11;;;;;;;11.15;2.60;;;;;;;;;;4953155;28;20031;-46
2021/06/03 01:41:38;;;;;;;13.93;3.15;;;;;;;;;;4952968;29;20098;-47
2021/06/03 01:44:05;;;;;;;11.90;3.55;;;;;;;;;;4936049;29;20439;-45
2021/06/03 01:46:33;;;;;;;9.88;2.63;;;;;;;;;;4952364;29;20608;-45
2021/06/03 01:49:01;;;;;;;12.27;3.10;;;;;;;;;;4950966;29;20054;-45
2021/06/03 01:51:28;;;;;;;16.02;3.72;;;;;;;;;;4953530;28;20019;-45
2021/06/03 01:53:55;;;;;;;12.32;3.05;;;;;;;;;;4943417;29;20024;-46
2021/06/03 01:56:23;;;;;;;13.93;2.67;;;;;;;;;;4947351;29;20110;-47
2021/06/03 01:58:50;;;;;;;11.13;2.67;;;;;;;;;;4952026;29;20027;-48
2021/06/03 02:01:19;;;;;;;15.00;2.70;;;;;;;;;;4951869;29;20038;-49
2021/06/03 02:03:46;;;;;;;13.15;2.42;;;;;;;;;;4951686;28;20490;-49
2021/06/03 02:06:14;;;;;;;12.45;2.28;;;;;;;;;;4952162;29;20479;-50
2021/06/03 02:08:41;;;;;;;19.83;2.75;;;;;;;;;;4952260;29;20023;-46
2021/06/03 02:11:08;;;;;;;11.45;2.47;;;;;;;;;;4951614;29;20390;-46
2021/06/03 02:13:39;;;;;;;11.07;2.97;;;;;;;;;;4950824;29;20030;-48
2021/06/03 02:16:12;;;;;;;11.55;2.80;;;;;;;;;;4939737;29;20031;-46
2021/06/03 02:18:43;;;;;;;12.57;2.60;;;;;;;;;;4949377;29;20039;-47
2021/06/03 02:21:10;;;;;;;11.30;2.20;;;;;;;;;;4946310;28;20552;-45
2021/06/03 02:23:38;;;;;;;10.20;2.20;;;;;;;;;;4951284;29;20071;-51
2021/06/03 02:26:05;;;;;;;10.45;2.25;;;;;;;;;;4951948;29;20023;-49
2021/06/03 02:28:32;;;;;;;10.90;2.38;;;;;;;;;;4952571;29;20030;-50
2021/06/03 02:31:00;;;;;;;14.73;2.55;;;;;;;;;;4953034;29;20030;-47
2021/06/03 02:33:28;;;;;;;10.48;2.53;;;;;;;;;;4953394;29;20489;-48
2021/06/03 02:35:55;;;;;;;12.82;2.15;;;;;;;;;;4953227;29;20023;-47
2021/06/03 02:38:29;;;;;;;14.95;2.28;;;;;;;;;;4953325;29;20365;-50
2021/06/03 02:40:59;;;;;;;9.00;1.70;;;;;;;;;;4951203;29;20023;-46
2021/06/03 02:43:26;;;;;;;8.60;2.50;;;;;;;;;;4953307;29;20114;-47
2021/06/03 02:45:53;;;;;;;9.93;2.00;;;;;;;;;;4953089;29;20019;-48
2021/06/03 02:48:20;;;;;;;7.55;2.33;;;;;;;;;;4953250;29;20070;-48
2021/06/03 02:50:47;;;;;;;9.88;2.10;;;;;;;;;;4954041;29;20123;-45
2021/06/03 02:53:15;;;;;;;8.70;1.80;;;;;;;;;;4949087;29;20475;-49
2021/06/03 02:55:42;;;;;;;8.98;1.88;;;;;;;;;;4953705;29;20484;-47
2021/06/03 02:58:10;;;;;;;10.43;2.10;;;;;;;;;;4953774;29;20544;-49
2021/06/03 03:00:37;;;;;;;9.18;1.60;;;;;;;;;;4953412;29;20054;-47
2021/06/03 03:03:05;;;;;;;6.18;1.88;;;;;;;;;;4953779;29;20126;-47
2021/06/03 03:05:32;;;;;;;6.78;2.20;;;;;;;;;;4953990;29;20023;-47
2021/06/03 03:08:00;;;;;;;8.02;1.83;;;;;;;;;;4953788;29;20510;-49
2021/06/03 03:10:28;;;;;;;11.27;1.98;;;;;;;;;;4936026;29;20043;-47
2021/06/03 03:12:55;;;;;;;6.38;1.77;;;;;;;;;;4954105;29;20024;-49
2021/06/03 03:15:23;;;;;;;5.32;1.80;;;;;;;;;;4956813;28;20058;-48
2021/06/03 03:17:51;;;;;;;6.93;1.63;;;;;;;;;;4960030;29;20027;-46
2021/06/03 03:20:19;;;;;;;11.65;1.60;;;;;;;;;;4960207;28;20529;-46
2021/06/03 03:22:47;;;;;;;6.93;1.55;;;;;;;;;;4965680;28;20030;-45
2021/06/03 03:25:15;;;;;;;9.63;2.33;;;;;;;;;;4962905;28;20063;-46
2021/06/03 03:27:42;;;;;;;8.32;1.70;;;;;;;;;;4959740;28;20019;-49
2021/06/03 03:30:10;;;;;;;11.10;2.08;;;;;;;;;;4960415;28;20117;-50
2021/06/03 03:32:38;;;;;;;9.15;1.77;;;;;;;;;;4959709;29;20034;-49
2021/06/03 03:35:06;;;;;;;7.93;1.52;;;;;;;;;;4960230;29;20498;-48
2021/06/03 03:37:33;;;;;;;10.65;2.03;;;;;;;;;;4959764;28;20058;-47
2021/06/03 03:40:00;;;;;;;11.13;2.00;;;;;;;;;;4960162;29;20082;-46
2021/06/03 03:42:27;;;;;;;5.50;1.50;;;;;;;;;;4959573;28;20031;-50
2021/06/03 03:44:55;;;;;;;6.03;1.63;;;;;;;;;;4960086;29;20383;-47
2021/06/03 03:47:22;;;;;;;8.38;1.63;;;;;;;;;;4959533;28;20061;-45
2021/06/03 03:49:49;;;;;;;8.48;1.67;;;;;;;;;;4957336;28;20062;-45
2021/06/03 03:52:17;;;;;;;9.88;1.60;;;;;;;;;;4950283;29;20016;-47
2021/06/03 03:54:44;;;;;;;6.30;1.80;;;;;;;;;;4959286;29;20106;-47
2021/06/03 03:57:11;;;;;;;5.50;1.40;;;;;;;;;;4957665;29;20074;-49
2021/06/03 03:59:38;;;;;;;8.68;1.67;;;;;;;;;;4940505;29;20476;-47
2021/06/03 04:02:05;;;;;;;3.83;1.20;;;;;;;;;;4940889;29;20039;-48
2021/06/03 04:04:32;;;;;;;10.57;1.75;;;;;;;;;;4940333;29;20034;-47
2021/06/03 04:06:59;;;;;;;3.75;1.40;;;;;;;;;;4951504;29;20104;-46
2021/06/03 04:09:27;;;;;;;5.95;1.40;;;;;;;;;;4959151;29;20035;-46
2021/06/03 04:11:57;;;;;;;7.20;1.80;;;;;;;;;;4960231;28;20031;-48
2021/06/03 04:14:24;;;;;;;4.15;1.10;;;;;;;;;;4959384;29;20114;-46
2021/06/03 04:16:51;;;;;;;9.43;1.60;;;;;;;;;;4960105;28;20024;-46
2021/06/03 04:21:50;;;;;;;5.40;1.42;;;;;;;;;;4887135;29;20063;-47
2021/06/03 04:24:17;;;;;;;4.82;1.50;;;;;;;;;;4926586;29;20087;-48
2021/06/03 04:26:44;;;;;;;6.35;1.80;;;;;;;;;;4925209;29;20038;-50
2021/06/03 04:29:12;;;;;;;7.18;1.50;;;;;;;;;;4937107;29;20039;-46
2021/06/03 04:31:39;;;;;;;8.13;1.70;;;;;;;;;;4937712;29;20468;-48
2021/06/03 04:34:06;;;;;;;5.55;1.60;;;;;;;;;;4937484;29;20034;-46
2021/06/03 04:36:33;;;;;;;5.70;1.55;;;;;;;;;;4937232;29;20487;-47
2021/06/03 04:39:00;;;;;;;3.83;1.27;;;;;;;;;;4925949;29;20035;-50
2021/06/03 04:41:27;;;;;;;8.60;1.40;;;;;;;;;;4918000;29;20027;-47
2021/06/03 04:43:54;;;;;;;2.72;1.08;;;;;;;;;;4918203;29;20080;-45
2021/06/03 04:46:21;;;;;;;3.78;1.50;;;;;;;;;;4918000;29;20028;-48
2021/06/03 04:48:48;;;;;;;4.35;1.00;;;;;;;;;;4918413;29;20501;-49
2021/06/03 04:51:15;;;;;;;4.50;1.20;;;;;;;;;;4917943;29;20028;-48
2021/06/03 04:53:42;;;;;;;4.35;1.25;;;;;;;;;;4901238;29;20075;-48
2021/06/03 04:56:09;;;;;;;5.05;1.30;;;;;;;;;;4917694;29;20039;-46
2021/06/03 04:58:36;;;;;;;4.88;1.42;;;;;;;;;;4918176;29;20067;-46
2021/06/03 05:01:03;;;;;;;6.97;1.35;;;;;;;;;;4918288;29;20035;-49
2021/06/03 05:03:30;;;;;;;5.68;1.30;;;;;;;;;;4917722;29;20358;-49
2021/06/03 05:05:57;;;;;;;3.38;1.35;;;;;;;;;;4917774;29;20043;-47
2021/06/03 05:08:24;;;;;;;4.07;1.30;;;;;;;;;;4917753;29;20103;-48
2021/06/03 05:10:51;;;;;;;5.60;1.35;;;;;;;;;;4917905;29;20036;-49
2021/06/03 05:13:18;;;;;;;4.88;1.30;;;;;;;;;;4917527;29;20031;-50
2021/06/03 05:15:46;;;;;;;3.08;1.10;;;;;;;;;;4917797;29;20044;-47
2021/06/03 05:18:13;;;;;;;6.65;1.88;;;;;;;;;;4917407;29;20527;-47
2021/06/03 05:20:40;;;;;;;3.65;1.20;;;;;;;;;;4928439;29;20058;-47
2021/06/03 05:23:07;;;;;;;4.55;1.35;;;;;;;;;;4936745;29;20110;-50
2021/06/03 05:25:34;;;;;;;3.03;1.30;;;;;;;;;;4936427;29;20016;-48
2021/06/03 05:28:02;;;;;;;6.70;1.40;;;;;;;;;;4936727;29;20118;-51
2021/06/03 05:30:30;;;;;;;1.98;0.90;;;;;;;;;;4936093;29;20032;-54
2021/06/03 05:32:57;;;;;;;2.50;1.00;;;;;;;;;;4936854;29;20019;-51
2021/06/03 05:35:24;;;;;;;3.00;1.20;;;;;;;;;;4936021;29;20456;-50
2021/06/03 05:37:52;;;;;;;2.25;1.00;;;;;;;;;;4935949;29;20032;-51
2021/06/03 05:40:21;;;;;;;5.15;1.13;;;;;;;;;;4936168;29;20023;-48
2021/06/03 05:42:49;;;;;;;2.58;1.00;;;;;;;;;;4936344;29;20035;-50
2021/06/03 05:45:16;;;;;;;3.67;1.50;;;;;;;;;;4935847;29;20083;-50
2021/06/03 05:47:44;;;;;;;3.25;1.10;;;;;;;;;;4936358;29;20127;-48
2021/06/03 05:50:12;;;;;;;2.88;0.98;;;;;;;;;;4936095;29;20039;-48
2021/06/03 05:52:40;;;;;;;3.40;1.02;;;;;;;;;;4935720;29;20507;-49
2021/06/03 05:55:08;;;;;;;5.10;1.40;;;;;;;;;;4936203;29;20027;-47
2021/06/03 05:57:35;;;;;;;3.70;0.90;;;;;;;;;;4935601;29;20056;-45
2021/06/03 06:00:08;;;;;;;4.47;1.17;;;;;;;;;;4935988;29;20040;-47
2021/06/03 06:03:12;;;;;;;3.58;0.93;;;;;;;;;;4935752;29;20095;-50
2021/06/03 06:08:14;;;;;;;2.22;0.77;;;;;;;;;;4935727;29;20083;-46
2021/06/03 06:10:43;;;;;;;2.20;0.90;;;;;;;;;;4936051;29;20098;-48
2021/06/03 06:13:11;;;;;;;2.58;0.90;;;;;;;;;;4935399;29;20035;-47
2021/06/03 06:15:38;;;;;;;2.70;0.88;;;;;;;;;;4935459;29;20510;-47
2021/06/03 06:18:06;;;;;;;1.92;0.80;;;;;;;;;;4935279;29;20023;-48
2021/06/03 06:20:34;;;;;;;3.78;1.08;;;;;;;;;;4935469;29;20048;-49
2021/06/03 06:23:02;;;;;;;2.40;1.05;;;;;;;;;;4934916;29;20031;-47
2021/06/03 06:25:29;;;;;;;2.50;0.90;;;;;;;;;;4935570;29;20384;-50
2021/06/03 06:27:57;;;;;;;7.85;1.00;;;;;;;;;;4935852;29;20036;-45
2021/06/03 06:30:25;;;;;;;3.88;0.80;;;;;;;;;;4934876;29;20118;-47
2021/06/03 06:32:52;;;;;;;2.35;0.88;;;;;;;;;;4935617;29;20392;-48
2021/06/03 06:35:19;;;;;;;2.53;1.05;;;;;;;;;;4935225;29;20051;-49
2021/06/03 06:37:46;;;;;;;4.10;1.27;;;;;;;;;;4935154;29;20055;-48
2021/06/03 06:40:13;;;;;;;1.63;0.82;;;;;;;;;;4935109;29;20028;-52
2021/06/03 06:42:40;;;;;;;3.75;0.77;;;;;;;;;;4935557;29;20032;-47
2021/06/03 06:45:08;;;;;;;4.43;0.90;;;;;;;;;;4934757;29;20027;-46
2021/06/03 06:47:36;;;;;;;3.17;0.80;;;;;;;;;;4935197;29;20055;-50
2021/06/03 06:50:06;;;;;;;2.65;1.02;;;;;;;;;;4934304;29;20194;-49
2021/06/03 06:52:33;;;;;;;2.17;0.93;;;;;;;;;;4935340;29;20024;-47
2021/06/03 06:55:00;;;;;;;1.08;0.45;;;;;;;;;;4934784;29;20028;-46
2021/06/03 06:57:27;;;;;;;2.22;0.80;;;;;;;;;;4935234;29;20142;-46
2021/06/03 06:59:54;;;;;;;3.90;0.80;;;;;;;;;;4918200;29;20038;-48
2021/06/03 07:02:21;;;;;;;1.15;0.80;;;;;;;;;;4917959;29;20064;-48
2021/06/03 07:04:49;;;;;;;1.80;0.75;;;;;;;;;;4935405;29;20023;-47
2021/06/03 07:07:16;;;;;;;2.70;0.80;;;;;;;;;;4934520;29;20070;-47
2021/06/03 07:09:43;;;;;;;2.13;0.70;;;;;;;;;;4934964;29;20038;-48
2021/06/03 07:12:11;;;;;;;2.20;0.82;;;;;;;;;;4934865;29;20495;-49
2021/06/03 07:14:38;;;;;;;1.80;0.63;;;;;;;;;;4934941;29;20106;-47
2021/06/03 07:17:06;;;;;;;2.72;0.60;;;;;;;;;;4934398;29;20020;-50
2021/06/03 07:19:33;;;;;;;2.20;0.68;;;;;;;;;;4934733;29;20159;-47
2021/06/03 07:22:00;;;;;;;0.80;0.50;;;;;;;;;;4934552;29;20035;-47
2021/06/03 07:24:28;;;;;;;1.77;0.88;;;;;;;;;;4934930;29;20384;-45
2021/06/03 07:26:55;;;;;;;2.95;0.60;;;;;;;;;;4934674;29;20020;-47
2021/06/03 07:29:22;;;;;;;1.95;0.60;;;;;;;;;;4934558;29;20098;-45
2021/06/03 07:31:49;;;;;;;1.55;0.60;;;;;;;;;;4934488;29;20023;-48
2021/06/03 07:34:16;;;;;;;2.78;0.90;;;;;;;;;;4934625;29;20023;-47
2021/06/03 07:36:43;;;;;;;2.13;0.73;;;;;;;;;;4934733;29;20027;-45
2021/06/03 07:39:10;;;;;;;2.03;0.60;;;;;;;;;;4934315;29;20410;-46
2021/06/03 07:41:37;;;;;;;1.73;0.70;;;;;;;;;;4934626;29;20031;-49
2021/06/03 07:44:04;;;;;;;1.73;0.80;;;;;;;;;;4934410;29;20028;-48
2021/06/03 07:46:32;;;;;;;1.05;0.55;;;;;;;;;;4917601;29;20140;-47
2021/06/03 07:49:00;;;;;;;1.17;0.50;;;;;;;;;;4934117;29;20034;-51
2021/06/03 07:51:27;;;;;;;1.42;0.50;;;;;;;;;;4934827;29;20127;-48
2021/06/03 07:53:54;;;;;;;1.10;0.60;;;;;;;;;;4934239;29;20024;-46
2021/06/03 07:56:21;;;;;;;1.23;0.52;;;;;;;;;;4934831;29;20028;-46
2021/06/03 07:58:48;;;;;;;1.80;0.60;;;;;;;;;;4934114;29;20054;-46
2021/06/03 08:01:15;;;;;;;1.80;0.60;;;;;;;;;;4935920;29;20027;-48
2021/06/03 08:03:42;;;;;;;1.88;0.70;;;;;;;;;;4938037;29;20395;-43
2021/06/03 08:06:09;;;;;;;1.45;0.40;;;;;;;;;;4937718;29;20024;-45
2021/06/03 08:08:37;;;;;;;2.83;0.50;;;;;;;;;;4937831;29;20467;-44
2021/06/03 08:11:08;;;;;;;2.10;0.57;;;;;;;;;;4937532;29;20700;-47
2021/06/03 08:13:36;;;;;;;1.60;0.70;;;;;;;;;;4938369;29;20466;-48
2021/06/03 08:16:03;;;;;;;1.58;0.50;;;;;;;;;;4937538;29;20020;-47
2021/06/03 08:18:31;;;;;;;1.63;0.50;;;;;;;;;;4937509;29;20028;-47
2021/06/03 08:20:59;;;;;;;1.63;0.50;;;;;;;;;;4937450;29;20496;-48
2021/06/03 08:23:28;;;;;;;1.67;0.50;;;;;;;;;;4937814;29;20531;-50
2021/06/03 08:25:58;;;;;;;1.15;0.50;;;;;;;;;;4937053;29;20031;-48
2021/06/03 08:28:27;;;;;;;2.03;0.50;;;;;;;;;;4937831;29;20071;-49
2021/06/03 08:30:56;;;;;;;0.88;0.47;;;;;;;;;;4936983;29;20039;-49
2021/06/03 08:33:24;;;;;;;1.02;0.50;;;;;;;;;;4937837;29;20024;-48
2021/06/03 08:35:51;;;;;;;1.95;0.60;;;;;;;;;;4937739;29;20480;-51
2021/06/03 08:38:18;;;;;;;1.23;0.50;;;;;;;;;;4934678;29;20024;-52
2021/06/03 08:40:47;;;;;;;1.40;0.60;;;;;;;;;;4933829;29;20022;-44
2021/06/03 08:43:15;;;;;;;1.17;0.50;;;;;;;;;;4936743;29;20480;-46
2021/06/03 08:45:43;;;;;;;0.98;0.55;;;;;;;;;;4937600;29;20032;-45
2021/06/03 08:48:10;;;;;;;3.25;0.73;;;;;;;;;;4936705;29;20027;-46
2021/06/03 08:50:39;;;;;;;2.05;0.52;;;;;;;;;;4937173;29;20090;-48
2021/06/03 08:53:07;;;;;;;2.03;0.80;;;;;;;;;;4936956;29;20028;-47
2021/06/03 08:58:21;;;;;;;0.82;0.30;;;;;;;;;;4936940;29;20094;-45
2021/06/03 09:00:48;;;;;;;1.58;0.50;;;;;;;;;;4933822;29;20024;-48
2021/06/03 09:03:16;;;;;;;2.40;0.55;;;;;;;;;;4934127;29;20028;-45
2021/06/03 09:05:44;;;;;;;0.60;0.40;;;;;;;;;;4936869;29;20475;-48
2021/06/03 09:08:17;;;;;;;1.85;0.70;;;;;;;;;;4936229;29;20028;-44
2021/06/03 09:10:44;;;;;;;1.05;0.57;;;;;;;;;;4936964;29;20074;-49
2021/06/03 09:13:11;;;;;;;1.00;0.38;;;;;;;;;;4936373;29;20420;-46
2021/06/03 09:15:40;;;;;;;1.02;0.43;;;;;;;;;;4936350;29;20373;-49
2021/06/03 09:18:09;;;;;;;1.23;0.40;;;;;;;;;;4936794;29;20606;-47
2021/06/03 09:20:40;;;;;;;0.73;0.63;;;;;;;;;;4936024;29;20067;-47
2021/06/03 09:23:07;;;;;;;0.95;0.30;;;;;;;;;;4936909;29;20031;-48
2021/06/03 09:25:39;;;;;;;0.80;0.30;;;;;;;;;;4936239;29;20031;-51
2021/06/03 09:28:18;;;;;;;3.15;0.40;;;;;;;;;;4937006;29;20056;-42
2021/06/03 09:31:04;;;;;;;0.70;0.30;;;;;;;;;;4936165;29;20111;-42
2021/06/03 09:33:42;;;;;;;1.98;0.43;;;;;;;;;;4936717;29;20066;-42
2021/06/03 09:38:50;;;;;;;3.13;0.50;;;;;;;;;;4947345;28;20367;-45
2021/06/03 09:41:18;;;;;;;0.95;0.38;;;;;;;;;;4935229;29;20111;-47
2021/06/03 09:43:45;;;;;;;0.40;0.40;;;;;;;;;;4936306;29;20019;-45
2021/06/03 09:46:15;;;;;;;1.15;0.40;;;;;;;;;;4935298;29;20032;-49
2021/06/03 09:48:44;;;;;;;0.98;0.52;;;;;;;;;;4935686;29;20024;-48
2021/06/03 09:51:18;;;;;;;1.02;0.40;;;;;;;;;;4935765;29;20083;-49
2021/06/03 09:53:51;;;;;;;0.65;0.50;;;;;;;;;;4918872;29;20098;-49
2021/06/03 09:56:22;;;;;;;1.55;0.38;;;;;;;;;;4935283;29;20031;-49
2021/06/03 09:58:50;;;;;;;1.47;0.60;;;;;;;;;;4935611;29;20487;-45
2021/06/03 10:01:36;;;;;;;1.15;0.30;;;;;;;;;;4935522;29;20087;-51
2021/06/03 10:04:04;;;;;;;1.98;0.63;;;;;;;;;;4935667;29;20024;-49
2021/06/03 10:06:31;;;;;;;0.77;0.35;;;;;;;;;;4935292;29;20535;-49
2021/06/03 10:08:58;;;;;;;0.57;0.40;;;;;;;;;;4935553;29;20039;-48
2021/06/03 10:11:43;;;;;;;1.70;0.50;;;;;;;;;;4935052;29;20250;-43
2021/06/03 10:14:15;;;;;;;2.17;0.40;;;;;;;;;;4935515;29;20388;-44
2021/06/03 10:16:42;;;;;;;0.70;0.40;;;;;;;;;;4934977;29;20785;-43
2021/06/03 10:19:21;;;;;;;2.10;0.50;;;;;;;;;;4935221;29;20047;-43
2021/06/03 10:22:06;;;;;;;0.55;0.47;;;;;;;;;;4934995;29;20062;-43
2021/06/03 10:24:51;;;;;;;0.60;0.30;;;;;;;;;;4934542;29;20032;-44
2021/06/03 10:27:19;;;;;;;1.30;0.50;;;;;;;;;;4934681;29;20032;-44
2021/06/03 10:29:48;;;;;;;0.98;0.40;;;;;;;;;;4935165;29;20035;-44
2021/06/03 10:32:17;;;;;;;1.35;0.40;;;;;;;;;;4935055;29;20035;-43
2021/06/03 10:34:44;;;;;;;0.98;0.40;;;;;;;;;;4935224;29;20031;-44
2021/06/03 10:37:15;;;;;;;0.75;0.40;;;;;;;;;;4923788;29;20044;-43
2021/06/03 10:39:43;;;;;;;1.58;0.50;;;;;;;;;;4916060;29;20028;-44
2021/06/03 10:42:12;;;;;;;0.90;0.30;;;;;;;;;;4916121;29;20020;-49
2021/06/03 10:44:40;;;;;;;0.73;0.30;;;;;;;;;;4915531;29;20020;-50
2021/06/03 10:47:09;;;;;;;0.52;0.40;;;;;;;;;;4916165;29;20016;-49
2021/06/03 10:49:36;;;;;;;0.98;0.50;;;;;;;;;;4915482;29;20040;-45
2021/06/03 10:52:08;;;;;;;0.50;0.30;;;;;;;;;;4915914;29;20055;-44
2021/06/03 10:54:54;;;;;;;1.27;0.40;;;;;;;;;;4915099;29;20028;-44
2021/06/03 10:57:23;;;;;;;1.15;0.40;;;;;;;;;;4916006;29;20301;-50
2021/06/03 10:59:50;;;;;;;1.08;0.40;;;;;;;;;;4915496;29;20024;-43
2021/06/03 11:02:18;;;;;;;0.88;0.40;;;;;;;;;;4915827;29;20059;-44
2021/06/03 11:04:46;;;;;;;1.25;0.40;;;;;;;;;;4915399;29;20536;-44
2021/06/03 11:07:14;;;;;;;0.88;0.45;;;;;;;;;;4915809;29;20032;-43
2021/06/03 11:09:43;;;;;;;0.70;0.30;;;;;;;;;;4915306;29;20119;-43
2021/06/03 11:12:16;;;;;;;1.63;0.50;;;;;;;;;;4915579;29;20504;-43
2021/06/03 11:14:58;;;;;;;2.53;0.68;;;;;;;;;;4915190;29;20119;-46
2021/06/03 11:17:43;;;;;;;0.82;0.40;;;;;;;;;;4915780;29;20492;-45
2021/06/03 11:20:11;;;;;;;0.80;0.40;;;;;;;;;;4915070;29;20032;-45
2021/06/03 11:22:38;;;;;;;1.25;0.30;;;;;;;;;;4898708;29;20532;-45
2021/06/03 11:25:06;;;;;;;2.40;0.45;;;;;;;;;;4898252;29;20070;-44
2021/06/03 11:27:37;;;;;;;0.80;0.40;;;;;;;;;;4915178;29;20103;-44
2021/06/03 11:30:10;;;;;;;2.83;0.40;;;;;;;;;;4930677;29;20036;-47
2021/06/03 11:32:39;;;;;;;4.78;0.57;;;;;;;;;;4929083;29;20031;-48
2021/06/03 11:35:09;;;;;;;1.25;0.45;;;;;;;;;;4933454;29;20543;-50
2021/06/03 11:37:36;;;;;;;2.05;0.50;;;;;;;;;;4934414;29;20044;-48
2021/06/03 11:40:08;;;;;;;1.67;0.60;;;;;;;;;;4936728;29;20035;-51
2021/06/03 11:42:46;;;;;;;1.33;0.40;;;;;;;;;;4934821;29;20135;-49
2021/06/03 11:45:33;;;;;;;1.58;0.63;;;;;;;;;;4934101;29;20107;-48
2021/06/03 11:48:05;;;;;;;1.52;0.80;;;;;;;;;;4937130;29;20461;-47
2021/06/03 11:50:31;;;;;;;;;;;;;;;;;;4935390;29;20102;-48
2021/06/03 11:53:03;;;;;;;5.45;0.40;;;;;;;;;;4937624;29;19913;-48
2021/06/03 11:55:46;;;;;;;1.90;0.57;;;;;;;;;;4936780;29;20051;-48
2021/06/03 11:58:13;;;;;;;2.95;0.40;;;;;;;;;;4937265;29;20043;-43
2021/06/03 12:00:50;;;;;;;0.50;0.40;;;;;;;;;;4935618;29;20276;-40
2021/06/03 12:03:29;;;;;;;2.85;0.75;;;;;;;;;;4936318;29;20534;-40
2021/06/03 12:05:57;;;;;;;1.70;0.38;;;;;;;;;;4920054;29;20020;-46
2021/06/03 12:08:48;;;;;;;1.73;0.40;;;;;;;;;;4936319;29;20032;-48
2021/06/03 12:11:40;;;;;;;4.70;0.52;;;;;;;;;;4931206;29;20043;-43
2021/06/03 12:14:09;;;;;;;1.50;0.40;;;;;;;;;;4929373;29;20476;-43
2021/06/03 12:16:40;;;;;;;3.25;0.50;;;;;;;;;;4936736;29;20035;-48
2021/06/03 12:19:18;;;;;;;5.13;0.40;;;;;;;;;;4936328;29;20052;-42
2021/06/03 12:21:49;;;;;;;6.25;0.88;;;;;;;;;;4941623;29;20059;-50
2021/06/03 12:24:16;;;;;;;4.10;0.60;;;;;;;;;;4955762;29;20563;-41
2021/06/03 12:26:44;;;;;;;1.27;0.32;;;;;;;;;;4936076;29;20035;-44
2021/06/03 12:29:25;;;;;;;4.88;0.60;;;;;;;;;;4956120;29;20035;-42
2021/06/03 12:31:52;;;;;;;4.90;0.50;;;;;;;;;;4955997;29;20042;-42
2021/06/03 12:34:21;;;;;;;2.00;0.50;;;;;;;;;;4938900;29;20050;-41
2021/06/03 12:36:48;;;;;;;1.95;0.82;;;;;;;;;;4953556;28;20058;-46
2021/06/03 12:39:15;;;;;;;4.13;0.52;;;;;;;;;;4955234;29;20019;-46
2021/06/03 12:41:43;;;;;;;1.00;0.45;;;;;;;;;;4956273;29;20012;-40
2021/06/03 12:44:15;;;;;;;2.33;0.63;;;;;;;;;;4930267;29;20471;-42
2021/06/03 12:46:59;;;;;;;3.40;0.50;;;;;;;;;;4936618;29;20047;-42
2021/06/03 12:49:29;;;;;;;3.22;0.57;;;;;;;;;;4933130;29;20058;-45
2021/06/03 12:51:58;;;;;;;1.92;0.43;;;;;;;;;;4936438;29;20110;-43
2021/06/03 12:54:33;;;;;;;4.60;0.45;;;;;;;;;;4935375;29;20035;-46
2021/06/03 12:57:00;;;;;;;2.95;0.43;;;;;;;;;;4935958;29;20099;-46
2021/06/03 12:59:29;;;;;;;1.77;0.45;;;;;;;;;;4935323;29;20028;-46
2021/06/03 13:02:00;;;;;;;4.68;0.50;;;;;;;;;;4925632;29;20050;-46
2021/06/03 13:04:33;;;;;;;1.60;0.47;;;;;;;;;;4928964;29;20024;-47
2021/06/03 13:07:01;;;;;;;2.45;0.77;;;;;;;;;;4929566;29;20035;-46
2021/06/03 13:09:28;;;;;;;2.53;0.40;;;;;;;;;;4927814;29;20024;-46
2021/06/03 13:11:55;;;;;;;8.00;0.50;;;;;;;;;;4916140;29;20042;-46
2021/06/03 13:14:24;;;;;;;2.08;0.47;;;;;;;;;;4925853;29;20031;-45
2021/06/03 13:16:52;;;;;;;1.08;0.50;;;;;;;;;;4927071;29;20039;-45
2021/06/03 13:19:21;;;;;;;1.80;0.40;;;;;;;;;;4935318;29;20178;-47
2021/06/03 13:21:54;;;;;;;3.85;0.60;;;;;;;;;;4925457;29;20032;-47
2021/06/03 13:24:23;;;;;;;3.10;0.52;;;;;;;;;;4924191;29;20028;-45
2021/06/03 13:26:50;;;;;;;2.63;0.40;;;;;;;;;;4922321;29;20580;-51
2021/06/03 13:29:18;;;;;;;1.48;0.50;;;;;;;;;;4921888;29;20115;-43
2021/06/03 13:31:45;;;;;;;2.63;0.60;;;;;;;;;;4921268;29;20043;-44
2021/06/03 13:34:44;;;;;;;2.05;0.80;;;;;;;;;;4912693;29;20040;-46
2021/06/03 13:37:13;;;;;;;2.10;0.40;;;;;;;;;;4879871;29;20075;-48
2021/06/03 13:39:42;;;;;;;3.90;0.70;;;;;;;;;;4925944;29;20477;-50
2021/06/03 13:42:11;;;;;;;1.52;0.60;;;;;;;;;;4929885;29;20476;-48
2021/06/03 13:44:57;;;;;;;3.72;0.57;;;;;;;;;;4928369;29;20074;-43
2021/06/03 13:47:39;;;;;;;3.35;0.40;;;;;;;;;;4932351;29;20480;-44
2021/06/03 13:50:13;;;;;;;1.55;0.60;;;;;;;;;;4926009;29;20059;-49
2021/06/03 13:53:00;;;;;;;6.82;0.60;;;;;;;;;;4927849;29;20080;-43
2021/06/03 13:55:29;;;;;;;3.25;0.75;;;;;;;;;;4931267;29;20038;-47
2021/06/03 13:57:57;;;;;;;2.80;0.47;;;;;;;;;;4930688;29;20078;-48
2021/06/03 14:00:42;;;;;;;6.32;1.15;;;;;;;;;;4931601;29;20035;-47
2021/06/03 14:03:12;;;;;;;2.42;0.80;;;;;;;;;;4927208;29;20035;-42
2021/06/03 14:05:40;;;;;;;5.95;0.60;;;;;;;;;;4932599;29;20035;-48
2021/06/03 14:08:13;;;;;;;5.30;0.63;;;;;;;;;;4928387;29;20032;-46
2021/06/03 14:10:58;;;;;;;3.55;1.00;;;;;;;;;;4929031;29;20123;-47
2021/06/03 14:13:25;;;;;;;2.42;0.77;;;;;;;;;;4930573;29;20016;-47
2021/06/03 14:15:52;;;;;;;8.55;0.60;;;;;;;;;;4930725;29;20502;-44
2021/06/03 14:18:19;;;;;;;5.75;0.70;;;;;;;;;;4928650;29;20361;-45
2021/06/03 14:20:46;;;;;;;2.55;0.60;;;;;;;;;;4933152;29;20034;-46
2021/06/03 14:23:15;;;;;;;6.18;1.02;;;;;;;;;;4932324;29;20498;-42
2021/06/03 14:25:42;;;;;;;5.45;0.80;;;;;;;;;;4925901;29;20030;-40
2021/06/03 14:28:18;;;;;;;9.18;1.05;;;;;;;;;;4918655;29;20046;-39
2021/06/03 14:30:50;;;;;;;2.75;0.65;;;;;;;;;;4935645;29;20148;-41
2021/06/03 14:33:21;;;;;;;3.63;0.55;;;;;;;;;;4914239;29;20110;-44
2021/06/03 14:35:49;;;;;;;8.48;0.63;;;;;;;;;;4930578;29;20036;-46
2021/06/03 14:38:17;;;;;;;4.25;0.68;;;;;;;;;;4934516;29;20047;-46
2021/06/03 14:40:50;;;;;;;2.42;0.52;;;;;;;;;;4931980;29;20388;-47
2021/06/03 14:43:23;;;;;;;5.45;0.63;;;;;;;;;;4925441;29;20028;-47
2021/06/03 14:45:52;;;;;;;4.43;0.52;;;;;;;;;;4928337;29;20539;-50
2021/06/03 14:48:24;;;;;;;5.70;0.80;;;;;;;;;;4925722;29;20032;-58
2021/06/03 14:50:52;;;;;;;5.72;0.68;;;;;;;;;;4931026;29;20073;-42
2021/06/03 14:53:21;;;;;;;3.30;0.60;;;;;;;;;;4930560;29;20095;-45
2021/06/03 14:55:53;;;;;;;14.55;1.00;;;;;;;;;;4930813;29;20047;-42
2021/06/03 14:58:20;;;;;;;2.50;0.60;;;;;;;;;;4929983;29;20343;-34
2021/06/03 15:00:49;;;;;;;2.50;0.55;;;;;;;;;;4928241;29;20121;-35
2021/06/03 15:03:16;;;;;;;4.53;0.60;;;;;;;;;;4931190;29;20047;-47